Sierra City, CA (96125)

11:39 PM PST on December 07, 2016 (GMT -0800)
Sierra City, CA. 96125 | | Change Station
Active Advisory: Winter Weather Advisory

Elev 4203 ft 39.57 °N, 120.63 °W | Updated 16 seconds ago

Snow
Snow
32.5 °F
Feels Like 32 °F
N
0.0
Wind Variable Wind from West
Gusts 0.0 mph

Today
High -- | Low -- °F
--% Chance of Precip.
Yesterday
High -- | Low -- °F
Precip. -- in
Pressure 30.06 in
Visibility 0.5 miles
Clouds
Windchill 32 °F
Dew Point 30 °F
Humidity 90%
Rainfall 0.00 in
Snow Depth Not available.
7:10 AM 4:38 PM
First Quarter, 60% visible
SPECI KBLU 080726Z AUTO 15010G16KT 1/2SM -SN FG VV002 00/M01 A3006 RMK AO2 P0002 I1000 T00001011 TSNO
Pressure 30.06 in
Visibility 0.5 miles
Clouds
Windchill 32 °F
Dew Point 30 °F
Humidity 90%
Rainfall 0.00 in
Snow Depth Not available.
7:10 AM 4:38 PM
First Quarter, 60% visible
SPECI KBLU 080726Z AUTO 15010G16KT 1/2SM -SN FG VV002 00/M01 A3006 RMK AO2 P0002 I1000 T00001011 TSNO

10-Day Weather Forecast

Almanac

Astronomy

Dec. 07, 2016 Rise Set
Actual Time
Civil Twilight
Nautical Twilight
Astronomical Twilight
Moon
Length of Visible Light
Length of Day
Tomorrow will be .
, % of the Moon is Illuminated

Today's Extremes

State Highs State Lows

Community

WunderPhotos

Upload Photos

1,956,259 photos uploaded!

WunderBlog® & News

Nearby

Air Quality

  Air Quality AQ Index Pollutant
Not available.

Snow Depth

Station Depth Elevation

Earthquake Activity

City Distance Mag. Time & Date
Minimum magnitude displayed is 2.5.

Coastal Water Temperatures

Place Temperature

Stations

Nearby Weather Stations

Station Location Temp. Windchill Dew Point Humidity Wind Precip. Elev Updated Type
                   

Watches & Warnings

Winter Weather Advisory
Issued: 2:34 PM PST Dec. 7, 2016 – National Weather Service

... Winter Weather Advisory remains in effect until 10 am PST
Thursday...

* main impact... chain controls and slick Road conditions. Travel
delays are likely.

* Timing... this evening through Thursday morning.

* Locations... elevations above 5000 feet, including Interstate
80 over Donner Pass and Highway 50 over Echo Summit.

* Snow accumulations... 3 to 6 inches above 5000 feet. Lighter snow
accumulations possible down to 2500 feet.

Precautionary/preparedness actions...

A Winter Weather Advisory for snow means that periods of snow
will cause primarily travel difficulties. Be prepared for snow
covered roads and limited visibilities, and use caution while
driving.


Interact with US via social media
www.Facebook.Com/NWS.Sacramento
www.Twitter.Com/nwssacramento